Coaticook, Canada
Current Conditions -  °F | °C
As of 9:14 AM on Saturday 20 Dec 2014 (Local Time) from CYSC Reporting Station
Light Snow Light Snow  
Wind Chill:   Ceiling: 400
Heat Index:   Visibility: 3mi
Dew Point:   Wind: 2mph
Humidity: 92%   Direction: NA
Pressure: 30.32"   Gusts: NA
Location:  45.13°N, 71.8°W
Report Text: CYSC 201414Z AUTO VRB02KT 3SM -SN OVC004 M13/M14 A3032 RMK SLP286
Loading
Personal Weather Stations






























Interactive Weather Map New forecast layout! Learn more

10-Day Weather Forecast

Advertisements
Track Severe Weather on mobile